Time;durP1;ratioP1;P1;durP2;ratioP2;P2;SDS_P1;SDS_P2;PMS_P1;PMS_P2;Temp;Humidity;BMP_temperature;BMP_pressure;BME280_temperature;BME280_humidity;BME280_pressure;Samples;Min_cycle;Max_cycle;Signal;HPM_P1;HPM_P2
2022/04/11 00:00:23;;;;;;;27.83;26.23;;;5.40;53.40;;;;;;6186250;23;20158;-80
2022/04/11 00:02:49;;;;;;;24.57;23.33;;;5.50;53.40;;;;;;6185620;23;20166;-81
2022/04/11 00:05:15;;;;;;;25.77;24.23;;;5.40;54.30;;;;;;6186603;23;20847;-80
2022/04/11 00:07:41;;;;;;;27.33;25.77;;;5.40;54.00;;;;;;6185784;23;20383;-80
2022/04/11 00:10:07;;;;;;;27.37;25.77;;;5.40;54.30;;;;;;6186711;23;20160;-81
2022/04/11 00:12:35;;;;;;;26.80;25.30;;;5.30;54.40;;;;;;6186585;23;20513;-81
2022/04/11 00:15:02;;;;;;;26.43;25.13;;;5.40;54.50;;;;;;6185778;23;20384;-81
2022/04/11 00:17:28;;;;;;;27.00;25.40;;;5.30;54.50;;;;;;6186031;23;20469;-81
2022/04/11 00:19:53;;;;;;;26.60;25.20;;;5.40;54.40;;;;;;6185532;23;20423;-81
2022/04/11 00:22:19;;;;;;;27.23;25.60;;;5.20;55.00;;;;;;6186594;23;20159;-81
2022/04/11 00:24:45;;;;;;;26.67;25.27;;;5.30;55.00;;;;;;6186429;23;20175;-80
2022/04/11 00:27:10;;;;;;;27.10;25.40;;;5.30;55.10;;;;;;6186808;23;20160;-80
2022/04/11 00:29:36;;;;;;;26.50;25.10;;;5.30;55.20;;;;;;6186065;23;20160;-81
2022/04/11 00:32:02;;;;;;;26.50;25.10;;;5.20;56.40;;;;;;6186304;23;20238;-81
2022/04/11 00:34:27;;;;;;;25.60;24.30;;;5.10;56.80;;;;;;6186829;23;20152;-80
2022/04/11 00:36:53;;;;;;;25.57;24.27;;;5.20;56.60;;;;;;6186811;23;20412;-80
2022/04/11 00:39:19;;;;;;;28.37;26.80;;;5.20;56.60;;;;;;6211990;23;20589;-81
2022/04/11 00:41:45;;;;;;;27.37;25.87;;;5.20;56.40;;;;;;6186619;23;20152;-81
2022/04/11 00:44:10;;;;;;;26.40;25.10;;;5.20;55.70;;;;;;6212171;23;20395;-81
2022/04/11 00:46:36;;;;;;;27.00;25.63;;;5.10;56.20;;;;;;6186776;23;20176;-81
2022/04/11 00:49:01;;;;;;;27.90;26.50;;;5.10;57.10;;;;;;6188008;23;20156;-81
2022/04/11 00:51:27;;;;;;;26.80;25.20;;;5.00;57.60;;;;;;6187620;23;20202;-80
2022/04/11 00:53:56;;;;;;;26.27;24.77;;;5.00;57.10;;;;;;6188176;23;20160;-81
2022/04/11 00:56:26;;;;;;;26.77;25.37;;;5.00;56.80;;;;;;6189027;23;20383;-81
2022/04/11 00:58:52;;;;;;;25.47;23.87;;;5.00;56.80;;;;;;6188936;23;20415;-77
2022/04/11 01:01:18;;;;;;;26.67;25.37;;;5.00;56.70;;;;;;6187997;23;20449;-81
2022/04/11 01:03:44;;;;;;;26.47;25.07;;;5.00;56.30;;;;;;6187804;23;20657;-81
2022/04/11 01:06:09;;;;;;;26.97;25.57;;;4.90;57.40;;;;;;6187669;23;20159;-80
2022/04/11 01:08:36;;;;;;;27.83;26.43;;;4.90;56.80;;;;;;6186319;23;21066;-77
2022/04/11 01:11:03;;;;;;;25.93;24.70;;;4.90;57.20;;;;;;6185718;23;20239;-76
2022/04/11 01:13:30;;;;;;;26.90;25.17;;;4.90;56.80;;;;;;6211437;23;20423;-75
2022/04/11 01:16:00;;;;;;;26.97;25.67;;;4.90;56.80;;;;;;6185626;23;20391;-76
2022/04/11 01:18:26;;;;;;;26.77;25.33;;;4.90;56.80;;;;;;6186035;23;20395;-76
2022/04/11 01:20:53;;;;;;;26.53;25.20;;;4.90;56.50;;;;;;6184701;23;20390;-76
2022/04/11 01:23:18;;;;;;;26.23;25.03;;;4.90;56.30;;;;;;6185076;23;20387;-76
2022/04/11 01:25:52;;;;;;;27.27;25.90;;;4.90;56.20;;;;;;6185373;23;20417;-75
2022/04/11 01:28:19;;;;;;;28.30;26.70;;;4.90;55.80;;;;;;6184799;23;20398;-76
2022/04/11 01:30:46;;;;;;;28.27;26.67;;;4.90;56.30;;;;;;6185107;23;20421;-76
2022/04/11 01:33:21;;;;;;;26.83;25.43;;;4.90;56.20;;;;;;6184928;23;20454;-76
2022/04/11 01:35:47;;;;;;;26.87;25.57;;;4.80;56.80;;;;;;6185135;23;20387;-76
2022/04/11 01:38:13;;;;;;;27.80;26.30;;;4.90;56.70;;;;;;6186071;23;20910;-76
2022/04/11 01:40:56;;;;;;;25.80;24.60;;;4.90;57.00;;;;;;6184864;23;20175;-76
2022/04/11 01:43:23;;;;;;;26.97;25.57;;;4.90;57.50;;;;;;6185202;23;20395;-76
2022/04/11 01:45:49;;;;;;;26.57;25.20;;;4.90;57.10;;;;;;6185001;23;20719;-76
2022/04/11 01:48:15;;;;;;;27.13;25.70;;;4.80;56.90;;;;;;6185356;23;20438;-76
2022/04/11 01:50:41;;;;;;;27.77;26.37;;;4.80;56.70;;;;;;6185177;23;20470;-75
2022/04/11 01:53:09;;;;;;;27.67;26.30;;;4.80;56.60;;;;;;6184597;23;20434;-75
2022/04/11 01:55:35;;;;;;;27.53;26.13;;;4.80;56.30;;;;;;6184477;23;20409;-76
2022/04/11 01:58:03;;;;;;;26.60;25.03;;;4.80;56.20;;;;;;6185219;23;20383;-76
2022/04/11 02:00:29;;;;;;;26.77;25.33;;;4.80;56.50;;;;;;6185766;23;20483;-81
2022/04/11 02:02:54;;;;;;;27.57;26.17;;;4.80;56.60;;;;;;6187440;23;20399;-81
2022/04/11 02:05:20;;;;;;;28.40;27.00;;;4.80;55.20;;;;;;6188011;23;20528;-81
2022/04/11 02:07:46;;;;;;;28.07;26.70;;;4.80;55.80;;;;;;6188102;23;20279;-81
2022/04/11 02:10:12;;;;;;;28.20;26.90;;;4.70;55.10;;;;;;6187234;23;20485;-81
2022/04/11 02:12:39;;;;;;;28.77;27.20;;;4.80;55.70;;;;;;6188140;23;20484;-81
2022/04/11 02:15:06;;;;;;;28.43;26.97;;;4.80;56.10;;;;;;6187675;23;20488;-81
2022/04/11 02:17:31;;;;;;;29.30;27.60;;;4.80;56.00;;;;;;6187740;23;20379;-81
2022/04/11 02:19:57;;;;;;;29.20;27.60;;;4.90;55.90;;;;;;6187986;23;20386;-81
2022/04/11 02:22:23;;;;;;;29.50;28.00;;;4.80;54.90;;;;;;6187356;23;20168;-80
2022/04/11 02:24:50;;;;;;;28.90;27.40;;;4.90;55.30;;;;;;6187770;23;20409;-80
2022/04/11 02:27:16;;;;;;;28.17;26.63;;;4.90;55.60;;;;;;6187123;23;20160;-80
2022/04/11 02:29:42;;;;;;;29.93;28.27;;;4.90;55.50;;;;;;6187420;23;20402;-81
2022/04/11 02:32:08;;;;;;;28.93;27.30;;;4.90;54.60;;;;;;6187260;23;20175;-80
2022/04/11 02:34:33;;;;;;;28.67;27.27;;;4.90;54.10;;;;;;6186798;23;20382;-80
2022/04/11 02:36:59;;;;;;;29.30;27.77;;;4.90;55.00;;;;;;6186680;23;20860;-81
2022/04/11 02:39:25;;;;;;;29.33;27.67;;;4.90;55.00;;;;;;6187994;23;20160;-81
2022/04/11 02:41:50;;;;;;;27.87;26.47;;;4.90;55.00;;;;;;6186735;23;20163;-81
2022/04/11 02:44:16;;;;;;;28.87;27.43;;;4.80;54.30;;;;;;6186205;23;20214;-80
2022/04/11 02:46:42;;;;;;;29.93;28.43;;;4.70;54.60;;;;;;6186367;23;20164;-80
2022/04/11 02:49:08;;;;;;;30.27;28.40;;;4.90;54.80;;;;;;6186830;23;20160;-79
2022/04/11 02:51:34;;;;;;;28.87;27.37;;;4.90;54.10;;;;;;6186346;23;20414;-81
2022/04/11 02:54:02;;;;;;;30.77;29.17;;;5.00;55.00;;;;;;6210177;23;20390;-81
2022/04/11 02:56:28;;;;;;;27.50;26.00;;;4.90;54.50;;;;;;6186747;23;20159;-80
2022/04/11 02:58:53;;;;;;;31.90;30.13;;;4.90;54.70;;;;;;6186954;23;20453;-81
2022/04/11 03:01:19;;;;;;;26.50;25.20;;;4.90;54.50;;;;;;6186694;23;20507;-81
2022/04/11 03:03:45;;;;;;;30.07;28.57;;;5.00;54.30;;;;;;6185988;23;20167;-81
2022/04/11 03:06:11;;;;;;;32.30;30.47;;;4.90;54.00;;;;;;6187208;23;20417;-81
2022/04/11 03:08:36;;;;;;;31.90;30.20;;;5.00;54.10;;;;;;6186337;23;20878;-81
2022/04/11 03:11:02;;;;;;;31.03;29.53;;;4.90;54.50;;;;;;6186776;23;20199;-81
2022/04/11 03:13:28;;;;;;;31.70;30.10;;;4.90;55.10;;;;;;6185365;23;20434;-81
2022/04/11 03:15:53;;;;;;;31.47;29.63;;;4.80;55.50;;;;;;6187256;23;20152;-76
2022/04/11 03:18:19;;;;;;;32.33;30.07;;;4.80;56.00;;;;;;6213616;23;20219;-80
2022/04/11 03:20:47;;;;;;;32.23;30.53;;;4.80;55.60;;;;;;6187026;23;20156;-80
2022/04/11 03:23:14;;;;;;;33.70;31.67;;;4.90;55.10;;;;;;6187176;23;20243;-79
2022/04/11 03:25:40;;;;;;;30.67;29.07;;;4.90;54.30;;;;;;6187335;23;20908;-81
2022/04/11 03:28:07;;;;;;;31.73;30.03;;;4.80;54.70;;;;;;6187336;23;20477;-80
2022/04/11 03:30:32;;;;;;;30.23;28.83;;;4.80;54.70;;;;;;6212482;23;20164;-80
2022/04/11 03:32:58;;;;;;;32.20;30.50;;;4.80;54.70;;;;;;6187303;23;20427;-81
2022/04/11 03:35:23;;;;;;;32.70;30.80;;;4.80;55.00;;;;;;6187564;23;20163;-80
2022/04/11 03:37:49;;;;;;;33.47;31.67;;;4.80;54.70;;;;;;6187163;23;20160;-80
2022/04/11 03:40:15;;;;;;;32.90;31.30;;;4.80;54.20;;;;;;6188892;23;20152;-80
2022/04/11 03:42:41;;;;;;;30.87;29.33;;;4.80;54.20;;;;;;6187542;23;20196;-80
2022/04/11 03:45:10;;;;;;;32.53;30.50;;;4.80;54.10;;;;;;6188372;23;20672;-80
2022/04/11 03:47:36;;;;;;;32.97;31.33;;;4.80;55.20;;;;;;6187974;23;20167;-81
2022/04/11 03:50:05;;;;;;;32.00;30.20;;;4.80;55.10;;;;;;6188598;23;20478;-81
2022/04/11 03:52:30;;;;;;;33.13;31.43;;;4.80;55.70;;;;;;6214836;23;20239;-81
2022/04/11 03:54:56;;;;;;;32.87;31.17;;;4.80;55.30;;;;;;6189033;23;20860;-81
2022/04/11 03:57:22;;;;;;;33.87;32.10;;;4.70;55.10;;;;;;6188944;23;20250;-79
2022/04/11 03:59:48;;;;;;;33.30;31.60;;;4.80;54.30;;;;;;6188316;23;20156;-80
2022/04/11 04:02:15;;;;;;;34.50;32.67;;;4.80;54.30;;;;;;6188761;23;20213;-81
2022/04/11 04:04:41;;;;;;;33.53;31.77;;;4.80;55.40;;;;;;6188697;23;20159;-80
2022/04/11 04:07:07;;;;;;;32.80;31.20;;;4.80;54.60;;;;;;6188381;23;20719;-79
2022/04/11 04:09:32;;;;;;;33.20;31.40;;;4.90;54.80;;;;;;6188882;23;20509;-80
2022/04/11 04:11:58;;;;;;;33.57;31.87;;;4.80;55.60;;;;;;6189462;23;20180;-79
2022/04/11 04:14:23;;;;;;;35.40;33.30;;;4.80;56.40;;;;;;6215696;23;20235;-80
2022/04/11 04:16:49;;;;;;;32.27;30.57;;;4.70;56.70;;;;;;6184607;23;20187;-80
2022/04/11 04:19:15;;;;;;;31.70;30.00;;;4.70;57.00;;;;;;6214252;23;20152;-80
2022/04/11 04:21:40;;;;;;;32.20;30.60;;;4.70;56.60;;;;;;6189114;23;20160;-81
2022/04/11 04:24:06;;;;;;;32.83;31.13;;;4.60;56.20;;;;;;6188387;23;20498;-81
2022/04/11 04:26:39;;;;;;;33.43;31.20;;;4.70;56.20;;;;;;6189047;23;20492;-80
2022/04/11 04:29:05;;;;;;;34.80;33.10;;;4.70;56.20;;;;;;6189441;23;20756;-80
2022/04/11 04:31:31;;;;;;;32.90;31.00;;;4.70;55.90;;;;;;6190021;23;20399;-80
2022/04/11 04:33:57;;;;;;;31.20;29.40;;;4.70;56.50;;;;;;6188857;23;20163;-81
2022/04/11 04:36:23;;;;;;;31.40;29.70;;;4.70;56.20;;;;;;6189125;23;20415;-80
2022/04/11 04:38:49;;;;;;;33.60;31.80;;;4.70;56.40;;;;;;6189384;23;20394;-80
2022/04/11 04:41:14;;;;;;;33.10;30.87;;;4.70;55.90;;;;;;6188596;23;20157;-75
2022/04/11 04:43:40;;;;;;;31.07;29.23;;;4.70;56.60;;;;;;6188022;23;20190;-76
2022/04/11 04:46:05;;;;;;;32.70;31.00;;;4.70;56.20;;;;;;6212480;23;20160;-76
2022/04/11 04:48:31;;;;;;;32.20;30.50;;;4.70;56.40;;;;;;6187622;23;20593;-75
2022/04/11 04:50:56;;;;;;;31.23;29.63;;;4.70;56.90;;;;;;6187627;23;20191;-76
2022/04/11 04:53:22;;;;;;;33.10;31.27;;;4.70;56.50;;;;;;6187663;23;20266;-76
2022/04/11 04:55:48;;;;;;;31.17;29.20;;;4.60;56.70;;;;;;6212795;23;20148;-77
2022/04/11 04:58:13;;;;;;;32.73;30.73;;;4.60;57.40;;;;;;6186058;23;20202;-76
2022/04/11 05:00:39;;;;;;;32.03;30.13;;;4.70;57.20;;;;;;6187293;23;20229;-76
2022/04/11 05:03:04;;;;;;;32.37;30.40;;;4.60;57.10;;;;;;6184722;23;20475;-76
2022/04/11 05:05:30;;;;;;;32.40;30.70;;;4.70;56.40;;;;;;6186762;23;20160;-76
2022/04/11 05:07:56;;;;;;;32.97;31.17;;;4.50;57.30;;;;;;6187781;23;20160;-75
2022/04/11 05:10:21;;;;;;;32.50;30.67;;;4.50;57.40;;;;;;6187932;23;20171;-76
2022/04/11 05:12:47;;;;;;;32.23;30.63;;;4.60;57.10;;;;;;6186899;23;20184;-75
2022/04/11 05:15:13;;;;;;;34.33;32.27;;;4.50;57.40;;;;;;6187846;23;20159;-75
2022/04/11 05:17:40;;;;;;;31.17;29.37;;;4.60;57.40;;;;;;6187680;23;20481;-77
2022/04/11 05:20:07;;;;;;;32.07;30.43;;;4.50;57.40;;;;;;6187658;23;20450;-76
2022/04/11 05:22:33;;;;;;;33.67;31.87;;;4.60;57.40;;;;;;6188597;23;20391;-75
2022/04/11 05:25:00;;;;;;;32.50;30.60;;;4.60;57.40;;;;;;6214492;23;20435;-76
2022/04/11 05:27:26;;;;;;;35.20;33.30;;;4.60;57.50;;;;;;6188199;23;20391;-76
2022/04/11 05:29:51;;;;;;;32.13;30.33;;;4.50;57.40;;;;;;6188299;23;20391;-77
2022/04/11 05:32:17;;;;;;;32.13;30.40;;;4.60;57.40;;;;;;6188180;23;20219;-76
2022/04/11 05:34:43;;;;;;;32.43;30.53;;;4.60;57.60;;;;;;6188035;23;20217;-76
2022/04/11 05:37:09;;;;;;;32.43;30.73;;;4.60;57.40;;;;;;6187951;23;20202;-76
2022/04/11 05:39:34;;;;;;;32.27;30.27;;;4.60;57.80;;;;;;6188246;23;20239;-76
2022/04/11 05:42:00;;;;;;;33.40;31.30;;;4.70;57.50;;;;;;6214825;23;20411;-76
2022/04/11 05:44:26;;;;;;;33.13;31.33;;;4.70;57.40;;;;;;6215621;23;20179;-77
2022/04/11 05:46:52;;;;;;;34.90;32.80;;;4.80;56.70;;;;;;6189425;23;20164;-80
2022/04/11 05:49:22;;;;;;;31.93;29.90;;;4.70;57.50;;;;;;6189584;23;20528;-80
2022/04/11 05:51:48;;;;;;;31.37;29.57;;;4.80;57.00;;;;;;6189263;23;20441;-81
2022/04/11 05:54:14;;;;;;;30.43;28.93;;;4.70;56.80;;;;;;6189394;23;20387;-75
2022/04/11 05:56:40;;;;;;;34.07;32.07;;;4.80;57.10;;;;;;6189851;23;20386;-77
2022/04/11 05:59:05;;;;;;;32.90;31.00;;;4.80;56.60;;;;;;6189447;23;20390;-77
2022/04/11 06:01:31;;;;;;;33.20;31.30;;;4.90;56.50;;;;;;6189268;23;20411;-84
2022/04/11 06:03:59;;;;;;;33.30;31.60;;;4.90;56.30;;;;;;6188820;23;20218;-82
2022/04/11 06:06:25;;;;;;;31.93;30.10;;;4.90;56.50;;;;;;6188655;23;20437;-76
2022/04/11 06:08:54;;;;;;;31.37;29.77;;;4.90;55.90;;;;;;6187441;23;20403;-77
2022/04/11 06:11:21;;;;;;;33.93;31.73;;;4.80;54.90;;;;;;6187969;23;20167;-76
2022/04/11 06:13:46;;;;;;;33.70;31.90;;;4.90;55.50;;;;;;6187249;23;20429;-76
2022/04/11 06:16:12;;;;;;;33.40;31.60;;;5.00;56.00;;;;;;6187859;23;20407;-75
2022/04/11 06:18:38;;;;;;;33.87;32.20;;;5.10;56.80;;;;;;6187540;23;20151;-76
2022/04/11 06:21:04;;;;;;;33.40;31.17;;;5.10;55.60;;;;;;6187349;23;20216;-76
2022/04/11 06:23:30;;;;;;;32.57;30.80;;;5.20;56.00;;;;;;6186866;23;20438;-75
2022/04/11 06:25:56;;;;;;;33.10;31.20;;;5.20;53.80;;;;;;6187005;23;20140;-76
2022/04/11 06:28:22;;;;;;;34.13;32.20;;;5.30;53.70;;;;;;6187149;23;20152;-77
2022/04/11 06:30:47;;;;;;;31.90;30.10;;;5.40;54.50;;;;;;6186932;23;20375;-77
2022/04/11 06:33:13;;;;;;;32.00;30.20;;;5.50;53.50;;;;;;6187230;23;20508;-78
2022/04/11 06:35:39;;;;;;;32.17;30.47;;;5.50;53.40;;;;;;6187293;23;20160;-82
2022/04/11 06:38:04;;;;;;;32.87;31.17;;;5.60;53.00;;;;;;6187524;23;20155;-81
2022/04/11 06:40:30;;;;;;;33.20;31.20;;;5.60;52.20;;;;;;6187783;23;20145;-81
2022/04/11 06:42:56;;;;;;;34.63;32.83;;;5.70;52.30;;;;;;6188067;23;20172;-80
2022/04/11 06:45:21;;;;;;;29.50;27.60;;;5.70;51.10;;;;;;6187815;23;20164;-81
2022/04/11 06:47:48;;;;;;;33.20;31.40;;;5.70;51.40;;;;;;6188770;23;20501;-80
2022/04/11 06:50:14;;;;;;;30.43;28.83;;;5.80;51.90;;;;;;6189962;23;20649;-81
2022/04/11 06:52:40;;;;;;;30.40;28.90;;;5.90;50.10;;;;;;6188785;23;20488;-81
2022/04/11 06:55:06;;;;;;;31.67;30.07;;;5.90;49.50;;;;;;6188954;23;20391;-81
2022/04/11 06:57:32;;;;;;;30.27;28.40;;;6.00;49.30;;;;;;6188976;23;20387;-81
2022/04/11 06:59:58;;;;;;;28.98;27.48;;;6.00;50.50;;;;;;6187679;23;20390;-81
2022/04/11 07:02:23;;;;;;;27.93;26.53;;;6.10;49.90;;;;;;6188886;23;20156;-81
2022/04/11 07:04:49;;;;;;;29.63;27.73;;;6.20;49.90;;;;;;6188749;23;20242;-81
2022/04/11 07:07:15;;;;;;;27.80;26.30;;;6.30;48.80;;;;;;6188803;23;20167;-82
2022/04/11 07:09:40;;;;;;;28.63;26.73;;;6.30;50.00;;;;;;6188731;23;20188;-81
2022/04/11 07:12:07;;;;;;;28.50;26.60;;;6.40;49.40;;;;;;6215655;23;20226;-80
2022/04/11 07:14:32;;;;;;;29.93;27.80;;;6.50;49.50;;;;;;6188399;23;20163;-82
2022/04/11 07:16:58;;;;;;;28.90;27.30;;;6.50;48.20;;;;;;6188485;23;20884;-80
2022/04/11 07:19:24;;;;;;;28.10;26.30;;;6.60;49.60;;;;;;6215310;23;20368;-80
2022/04/11 07:21:50;;;;;;;30.70;28.37;;;6.70;48.40;;;;;;6188509;23;20156;-81
2022/04/11 07:24:15;;;;;;;27.83;26.07;;;6.70;46.50;;;;;;6188484;23;20229;-81
2022/04/11 07:26:41;;;;;;;29.07;27.37;;;6.80;48.10;;;;;;6188831;23;20164;-81
2022/04/11 07:29:07;;;;;;;39.03;29.20;;;6.80;48.40;;;;;;6188464;23;20387;-81
2022/04/11 07:31:33;;;;;;;29.00;27.20;;;6.90;48.40;;;;;;6188458;23;20190;-80
2022/04/11 07:33:58;;;;;;;29.57;27.67;;;7.00;50.70;;;;;;6188572;23;20521;-81
2022/04/11 07:36:24;;;;;;;30.40;28.60;;;7.00;49.60;;;;;;6188741;23;20243;-81
2022/04/11 07:38:50;;;;;;;31.53;28.57;;;7.10;47.30;;;;;;6188565;23;20159;-80
2022/04/11 07:41:15;;;;;;;28.00;26.13;;;7.30;45.90;;;;;;6188547;23;20156;-81
2022/04/11 07:43:41;;;;;;;27.67;26.33;;;7.40;45.40;;;;;;6188459;23;20156;-80
2022/04/11 07:46:06;;;;;;;26.83;25.47;;;7.40;44.50;;;;;;6188589;23;20160;-80
2022/04/11 07:48:32;;;;;;;27.33;25.93;;;7.50;45.10;;;;;;6213683;23;20163;-78
2022/04/11 07:50:58;;;;;;;26.83;25.53;;;7.60;43.90;;;;;;6188319;23;20160;-80
2022/04/11 07:53:24;;;;;;;27.87;26.17;;;7.70;44.70;;;;;;6188331;23;20791;-80
2022/04/11 07:55:49;;;;;;;28.97;27.37;;;7.80;43.70;;;;;;6188534;23;20163;-81
2022/04/11 07:58:16;;;;;;;26.43;24.67;;;7.90;42.40;;;;;;6188484;23;20246;-81
2022/04/11 08:00:42;;;;;;;25.87;24.77;;;7.90;41.80;;;;;;6188639;23;20195;-81
2022/04/11 08:03:08;;;;;;;25.43;24.13;;;7.90;40.80;;;;;;6213152;23;20401;-82
2022/04/11 08:05:33;;;;;;;25.43;24.23;;;8.10;39.00;;;;;;6187950;23;20159;-82
2022/04/11 08:07:59;;;;;;;26.17;24.97;;;8.20;39.30;;;;;;6188082;23;20515;-81
2022/04/11 08:10:25;;;;;;;25.23;24.03;;;8.20;40.20;;;;;;6188604;23;20167;-81
2022/04/11 08:12:55;;;;;;;26.37;25.17;;;8.30;39.50;;;;;;6188361;23;20553;-82
2022/04/11 08:15:21;;;;;;;24.27;23.17;;;8.50;36.30;;;;;;6213797;23;20427;-81
2022/04/11 08:17:47;;;;;;;25.33;24.20;;;8.60;36.70;;;;;;6188129;23;20390;-81
2022/04/11 08:20:13;;;;;;;24.10;23.00;;;8.60;37.60;;;;;;6188909;23;20387;-81
2022/04/11 08:22:38;;;;;;;26.50;25.07;;;8.60;37.50;;;;;;6188131;23;20163;-82
2022/04/11 08:25:04;;;;;;;27.37;25.80;;;8.70;36.20;;;;;;6212874;23;20183;-82
2022/04/11 08:27:30;;;;;;;27.33;25.73;;;8.70;37.90;;;;;;6188488;23;20297;-81
2022/04/11 08:29:56;;;;;;;26.20;24.47;;;8.90;37.30;;;;;;6188150;23;20436;-80
2022/04/11 08:32:21;;;;;;;24.43;23.40;;;9.00;38.10;;;;;;6188370;23;20187;-82
2022/04/11 08:34:47;;;;;;;26.90;25.60;;;9.00;36.80;;;;;;6187874;23;20156;-81
2022/04/11 08:37:12;;;;;;;26.00;24.73;;;9.20;35.70;;;;;;6188244;23;20523;-81
2022/04/11 08:39:38;;;;;;;24.97;23.83;;;9.20;34.70;;;;;;6188011;23;20195;-82
2022/04/11 08:42:04;;;;;;;24.90;23.70;;;9.40;33.90;;;;;;6188299;23;20160;-80
2022/04/11 08:44:32;;;;;;;24.50;23.30;;;9.50;33.50;;;;;;6187496;23;20206;-81
2022/04/11 08:47:04;;;;;;;26.13;24.67;;;9.50;35.10;;;;;;6188125;23;20398;-81
2022/04/11 08:49:31;;;;;;;27.70;25.73;;;9.60;33.90;;;;;;6188016;23;20394;-81
2022/04/11 08:51:57;;;;;;;25.97;24.27;;;9.60;34.10;;;;;;6188087;23;20457;-80
2022/04/11 08:54:23;;;;;;;25.90;24.70;;;9.60;36.00;;;;;;6188036;23;20457;-79
2022/04/11 08:56:48;;;;;;;25.00;24.00;;;9.60;35.60;;;;;;6187956;23;20387;-81
2022/04/11 08:59:14;;;;;;;27.40;26.10;;;9.70;33.40;;;;;;6212712;23;20507;-81
2022/04/11 09:01:40;;;;;;;25.50;24.40;;;9.70;35.10;;;;;;6213118;23;20156;-79
2022/04/11 09:04:08;;;;;;;25.03;23.93;;;9.80;33.60;;;;;;6187839;23;20187;-81
2022/04/11 09:06:35;;;;;;;26.17;24.97;;;10.00;29.90;;;;;;6187647;23;20389;-80
2022/04/11 09:09:02;;;;;;;26.13;24.50;;;10.10;29.50;;;;;;6187712;23;20482;-79
2022/04/11 09:11:35;;;;;;;25.40;24.20;;;10.20;29.30;;;;;;6187260;23;20465;-80
2022/04/11 09:14:06;;;;;;;25.80;24.60;;;10.30;28.90;;;;;;6214406;23;20506;-81
2022/04/11 09:16:49;;;;;;;24.83;23.83;;;10.30;28.70;;;;;;6188129;23;20865;-80
2022/04/11 09:19:26;;;;;;;25.30;24.20;;;10.30;29.00;;;;;;6188049;23;20371;-81
2022/04/11 09:21:54;;;;;;;30.43;28.43;;;10.40;29.50;;;;;;6214228;23;20366;-80
2022/04/11 09:24:26;;;;;;;26.57;25.37;;;10.50;29.90;;;;;;6187711;23;20407;-81
2022/04/11 09:26:55;;;;;;;25.93;24.73;;;10.50;30.10;;;;;;6187567;23;20406;-81
2022/04/11 09:29:25;;;;;;;24.70;23.60;;;10.60;29.70;;;;;;6187835;23;20386;-81
2022/04/11 09:31:52;;;;;;;24.30;23.20;;;10.70;28.80;;;;;;6187363;23;20473;-81
2022/04/11 09:34:17;;;;;;;23.53;22.53;;;10.80;30.00;;;;;;6187485;23;20375;-82
2022/04/11 09:36:45;;;;;;;24.00;23.00;;;10.80;28.30;;;;;;6212637;23;20383;-81
2022/04/11 09:39:11;;;;;;;23.80;22.87;;;10.90;28.00;;;;;;6187692;23;20152;-80
2022/04/11 09:41:45;;;;;;;26.30;25.10;;;10.90;26.10;;;;;;6187729;23;20390;-81
2022/04/11 09:44:25;;;;;;;25.07;24.00;;;10.90;27.70;;;;;;6187339;23;20176;-81
2022/04/11 09:46:57;;;;;;;23.70;22.10;;;11.00;28.00;;;;;;6212815;23;20379;-81
2022/04/11 09:49:24;;;;;;;24.70;23.43;;;11.00;28.00;;;;;;6187560;23;20375;-80
2022/04/11 09:52:06;;;;;;;22.33;21.33;;;11.20;28.30;;;;;;6187329;23;20392;-80
2022/04/11 09:54:32;;;;;;;25.07;23.97;;;11.40;25.60;;;;;;6212241;23;20383;-81
2022/04/11 09:57:00;;;;;;;24.10;23.07;;;11.40;26.30;;;;;;6187569;23;20388;-81
2022/04/11 09:59:26;;;;;;;24.10;23.10;;;11.50;26.70;;;;;;6187602;23;20878;-80
2022/04/11 10:01:53;;;;;;;24.00;23.00;;;11.60;25.00;;;;;;6187163;23;20887;-80
2022/04/11 10:04:22;;;;;;;22.90;21.80;;;11.60;23.80;;;;;;6185911;23;20425;-81
2022/04/11 10:06:49;;;;;;;23.17;22.10;;;11.70;24.40;;;;;;6183202;23;20723;-74
2022/04/11 10:09:16;;;;;;;23.47;22.47;;;11.70;24.40;;;;;;6185462;23;20383;-74
2022/04/11 10:11:43;;;;;;;23.30;22.30;;;11.90;23.10;;;;;;6184942;23;20879;-81
2022/04/11 10:14:17;;;;;;;23.67;22.67;;;11.90;24.50;;;;;;6185325;23;20398;-80
2022/04/11 10:16:44;;;;;;;26.73;25.07;;;11.90;24.50;;;;;;6185303;23;20417;-79
2022/04/11 10:19:10;;;;;;;23.73;22.63;;;11.90;24.50;;;;;;6184613;23;20383;-80
2022/04/11 10:21:41;;;;;;;22.97;22.03;;;12.20;25.00;;;;;;6184123;23;20391;-80
2022/04/11 10:24:16;;;;;;;23.00;21.90;;;12.30;23.80;;;;;;6189364;23;20411;-81
2022/04/11 10:26:54;;;;;;;23.47;22.57;;;12.50;22.60;;;;;;6189251;23;20382;-80
2022/04/11 10:29:34;;;;;;;23.37;22.37;;;12.60;22.00;;;;;;6189708;23;20524;-80
2022/04/11 10:32:08;;;;;;;22.60;21.60;;;12.60;23.10;;;;;;6187576;23;20405;-80
2022/04/11 10:34:54;;;;;;;22.70;21.73;;;12.60;23.00;;;;;;6189401;23;20423;-76
2022/04/11 10:37:22;;;;;;;22.60;21.70;;;12.70;23.20;;;;;;6190134;23;20755;-75
2022/04/11 10:39:49;;;;;;;23.20;22.30;;;12.80;22.90;;;;;;6189868;23;20397;-76
2022/04/11 10:42:17;;;;;;;22.30;21.50;;;12.90;23.30;;;;;;6189627;23;20390;-76
2022/04/11 10:44:53;;;;;;;23.63;22.63;;;12.90;22.30;;;;;;6189143;23;20395;-76
2022/04/11 10:47:31;;;;;;;22.90;22.00;;;13.00;24.00;;;;;;6189464;23;20386;-76
2022/04/11 10:50:01;;;;;;;23.93;22.93;;;13.00;22.80;;;;;;6189401;23;20398;-76
2022/04/11 10:52:26;;;;;;;23.57;22.57;;;13.10;23.40;;;;;;6214268;23;20438;-76
2022/04/11 10:54:54;;;;;;;23.20;22.20;;;13.00;24.10;;;;;;6215711;23;20383;-75
2022/04/11 10:57:39;;;;;;;23.63;22.63;;;13.20;21.50;;;;;;6189499;23;20152;-77
2022/04/11 11:00:14;;;;;;;23.43;22.20;;;13.30;21.30;;;;;;6189375;23;20375;-75
2022/04/11 11:05:28;;;;;;;23.33;22.20;;;13.30;22.20;;;;;;6216628;23;20379;-76
2022/04/11 11:08:12;;;;;;;23.80;22.70;;;13.50;22.30;;;;;;6214970;23;20509;-76
2022/04/11 11:10:53;;;;;;;22.00;20.90;;;13.60;21.10;;;;;;6215502;23;20441;-76
2022/04/11 11:13:39;;;;;;;23.10;22.00;;;13.40;22.20;;;;;;6215695;23;20493;-79
2022/04/11 11:16:10;;;;;;;24.50;23.40;;;13.50;22.00;;;;;;6190599;23;20387;-80
2022/04/11 11:18:48;;;;;;;23.07;22.17;;;13.50;21.10;;;;;;6215669;23;20755;-75
2022/04/11 11:21:16;;;;;;;23.37;22.37;;;13.50;21.20;;;;;;6215838;23;20871;-81
2022/04/11 11:24:01;;;;;;;23.57;22.53;;;13.50;22.70;;;;;;6215314;23;20564;-79
2022/04/11 11:26:29;;;;;;;24.17;23.03;;;13.50;22.00;;;;;;6214906;23;20376;-80
2022/04/11 11:28:55;;;;;;;23.40;22.50;;;13.50;23.00;;;;;;6189874;23;20387;-80
2022/04/11 11:31:22;;;;;;;22.93;21.83;;;13.50;23.00;;;;;;6189714;23;20401;-79
2022/04/11 11:33:51;;;;;;;23.47;22.50;;;13.50;23.00;;;;;;6188230;23;20230;-80
2022/04/11 11:36:17;;;;;;;22.40;21.50;;;13.60;21.20;;;;;;6188997;23;20852;-80
2022/04/11 11:38:42;;;;;;;23.93;22.83;;;13.90;21.10;;;;;;6189027;23;20488;-81
2022/04/11 11:41:08;;;;;;;24.70;23.70;;;13.90;21.40;;;;;;6188982;23;20402;-81
2022/04/11 11:43:35;;;;;;;24.63;23.43;;;13.90;21.70;;;;;;6188986;23;20164;-80
2022/04/11 11:46:03;;;;;;;22.87;21.87;;;13.90;21.10;;;;;;6215631;23;20156;-80
2022/04/11 11:48:33;;;;;;;23.93;22.93;;;13.90;22.10;;;;;;6189032;23;20390;-80
2022/04/11 11:51:01;;;;;;;22.60;21.70;;;13.80;20.60;;;;;;6188689;23;20395;-80
2022/04/11 11:53:51;;;;;;;23.03;22.03;;;13.80;21.50;;;;;;6188395;23;20423;-80
2022/04/11 11:56:17;;;;;;;23.47;22.47;;;13.80;19.50;;;;;;6188671;23;20462;-81
2022/04/11 11:58:43;;;;;;;23.90;22.60;;;14.00;19.60;;;;;;6188705;23;20393;-80
2022/04/11 12:01:15;;;;;;;23.33;22.43;;;13.90;19.90;;;;;;6188643;23;20449;-80
2022/04/11 12:06:29;;;;;;;23.47;22.43;;;14.10;20.60;;;;;;6215404;23;20417;-81
2022/04/11 12:08:55;;;;;;;22.60;21.60;;;14.10;20.70;;;;;;6188567;23;20903;-80
2022/04/11 12:11:23;;;;;;;22.30;21.40;;;14.10;20.70;;;;;;6188452;23;20163;-80
2022/04/11 12:13:49;;;;;;;22.50;21.50;;;14.20;19.00;;;;;;6188259;23;20434;-81
2022/04/11 12:16:19;;;;;;;23.43;21.43;;;14.30;19.40;;;;;;6188289;23;20387;-80
2022/04/11 12:18:56;;;;;;;21.73;20.60;;;14.30;18.90;;;;;;6188641;23;20144;-74
2022/04/11 12:21:36;;;;;;;22.27;21.03;;;14.30;19.30;;;;;;6213674;23;20368;-75
2022/04/11 12:24:06;;;;;;;21.50;20.60;;;14.50;19.00;;;;;;6188108;23;20843;-75
2022/04/11 12:26:35;;;;;;;23.80;22.17;;;14.40;18.80;;;;;;6189092;23;20462;-79
2022/04/11 12:29:14;;;;;;;20.40;19.60;;;14.50;19.60;;;;;;6215779;23;20737;-79
2022/04/11 12:32:03;;;;;;;21.57;20.70;;;14.60;18.00;;;;;;6189153;23;20386;-79
2022/04/11 12:34:39;;;;;;;20.60;19.80;;;14.70;16.10;;;;;;6189307;23;20418;-79
2022/04/11 12:37:07;;;;;;;22.60;21.60;;;14.60;18.10;;;;;;6189301;23;20702;-79
2022/04/11 12:39:48;;;;;;;21.40;20.60;;;14.70;18.30;;;;;;6189223;23;20890;-79